75  °F
Temperature
66  °F
  Dewpoint
   Humidity
Temp | Dewpoint | Humidity
14  km/h
Wind Speed
9  mph
Wind Speed
8  kts
Wind Speed
200°
South South
West

Wind Speed
Partly Cloudy
Conditions
Pressure 1009.12 (hPa) - 29.8 (in)
Visibility 10.0 (mi) - 16.1 (km)

Current Conditions
KAVP
Location 6km (3.2mi)
Metar :KAVP 191854Z 20008KT 10SM FEW039 BKN095 24/19 A2980 RMK AO2 SLP082 T02440194 $
Wed 19th June 13:54 pm

Airport
  Metar Aviation API Data Provided by https://www.checkwx.com/ CSS/SVG/PHP scripts by weather34.com © 2015-2019